Time;durP1;ratioP1;P1;durP2;ratioP2;P2;SDS_P1;SDS_P2;PMS_P1;PMS_P2;Temp;Humidity;BMP_temperature;BMP_pressure;BME280_temperature;BME280_humidity;BME280_pressure;Samples;Min_cycle;Max_cycle;Signal;HPM_P1;HPM_P2
2023/12/17 00:00:16;;;;;;;35.38;26.02;;;;;;;8.76;100.00;98506.94;5049182;28;20037;-63
2023/12/17 00:02:41;;;;;;;28.58;21.80;;;;;;;8.76;100.00;98506.16;5051378;28;20025;-63
2023/12/17 00:05:07;;;;;;;32.20;23.27;;;;;;;8.75;100.00;98852.34;5063691;28;20035;-63
2023/12/17 00:07:33;;;;;;;30.15;21.60;;;;;;;8.71;100.00;99539.97;5071273;28;20032;-63
2023/12/17 00:09:58;;;;;;;29.23;22.02;;;;;;;8.76;100.00;99895.16;5071458;28;20025;-62
2023/12/17 00:12:23;;;;;;;29.95;21.88;;;;;;;8.68;100.00;101271.50;5070012;28;20415;-62
2023/12/17 00:14:49;;;;;;;24.20;19.80;;;;;;;8.77;100.00;101632.78;5071783;28;20054;-62
2023/12/17 00:17:14;;;;;;;27.23;20.95;;;;;;;8.81;100.00;103375.41;5069685;28;20423;-62
2023/12/17 00:19:39;;;;;;;30.27;24.00;;;;;;;8.79;100.00;105110.41;5064873;28;20037;-62
2023/12/17 00:22:05;;;;;;;26.52;21.85;;;;;;;8.78;100.00;107194.69;5050132;28;20060;-62
2023/12/17 00:24:30;;;;;;;30.05;23.63;;;;;;;8.84;100.00;110335.59;5050692;28;20028;-62
2023/12/17 00:26:57;;;;;;;31.23;22.52;;;;;;;8.82;100.00;113118.19;5049946;28;20045;-62
2023/12/17 00:29:23;;;;;;;35.05;22.65;;;;;;;8.73;100.00;115888.31;5049812;28;20127;-62
2023/12/17 00:31:48;;;;;;;28.13;22.23;;;;;;;8.73;100.00;118328.31;5052053;28;20078;-63
2023/12/17 00:34:13;;;;;;;34.08;24.48;;;;;;;8.72;100.00;119722.25;5070021;28;20048;-62
2023/12/17 00:36:39;;;;;;;27.85;24.70;;;;;;;8.78;100.00;120779.66;5070962;28;20381;-61
2023/12/17 00:39:04;;;;;;;28.52;22.08;;;;;;;8.82;100.00;121834.56;5069267;28;20025;-63
2023/12/17 00:41:31;;;;;;;28.02;23.13;;;;;;;8.88;100.00;123940.38;5070858;28;20035;-61
2023/12/17 00:43:57;;;;;;;27.70;21.95;;;;;;;8.85;100.00;127429.03;5069445;28;20059;-61
2023/12/17 00:46:22;;;;;;;27.00;20.98;;;;;;;8.84;100.00;129524.53;5070436;28;20152;-61
2023/12/17 00:48:47;;;;;;;24.90;19.52;;;;;;;8.83;100.00;130921.38;5051134;28;20024;-61
2023/12/17 00:51:13;;;;;;;27.77;19.92;;;;;;;8.86;100.00;131276.63;5049776;28;20678;-61
2023/12/17 00:53:38;;;;;;;26.23;21.80;;;;;;;8.83;100.00;131970.94;5050407;28;20020;-61
2023/12/17 00:56:04;;;;;;;26.20;21.35;;;;;;;8.84;100.00;132672.97;5049343;28;20127;-61
2023/12/17 00:58:29;;;;;;;24.65;21.83;;;;;;;8.85;100.00;133025.13;5050686;28;20032;-61
2023/12/17 01:00:55;;;;;;;22.90;20.45;;;;;;;8.85;100.00;133374.06;5059558;28;20044;-61
2023/12/17 01:03:20;;;;;;;24.73;20.08;;;;;;;8.86;100.00;134776.59;5070036;28;20020;-61
2023/12/17 01:05:45;;;;;;;28.10;20.50;;;;;;;8.87;100.00;135830.53;5069350;28;20411;-61
2023/12/17 01:08:11;;;;;;;28.63;21.90;;;;;;;8.87;100.00;137230.59;5070118;28;20087;-61
2023/12/17 01:10:36;;;;;;;27.13;21.45;;;;;;;8.85;100.00;138627.72;5068713;28;20040;-61
2023/12/17 01:13:01;;;;;;;27.95;21.38;;;;;;;8.84;100.00;139327.56;5070627;28;20494;-62
2023/12/17 01:15:27;;;;;;;28.70;20.67;;;;;;;8.85;100.00;140381.56;5060289;28;20044;-63
2023/12/17 01:17:52;;;;;;;24.95;20.85;;;;;;;8.86;100.00;141435.91;5050179;28;20467;-61
2023/12/17 01:20:18;;;;;;;25.65;19.85;;;;;;;8.82;100.00;142829.59;5048853;28;20036;-61
2023/12/17 01:22:43;;;;;;;28.10;20.52;;;;;;;8.84;100.00;142834.28;5050414;28;20025;-62
2023/12/17 01:25:09;;;;;;;25.38;21.23;;;;;;;8.72;100.00;144210.44;5048660;28;20049;-62
2023/12/17 01:27:34;;;;;;;35.05;24.42;;;;;;;8.79;100.00;143173.31;5050193;28;20143;-62
2023/12/17 01:29:59;;;;;;;24.77;18.70;;;;;;;8.75;100.00;143514.69;5067818;28;20414;-62
2023/12/17 01:32:25;;;;;;;27.92;23.02;;;;;;;8.79;100.00;142121.00;5069923;28;20032;-62
2023/12/17 01:34:50;;;;;;;26.02;21.05;;;;;;;8.77;100.00;141764.44;5069097;28;20040;-62
2023/12/17 01:37:16;;;;;;;26.70;20.60;;;;;;;8.80;100.00;143175.69;5070163;28;20445;-62
2023/12/17 01:39:42;;;;;;;24.63;20.95;;;;;;;8.81;100.00;143879.78;5068485;28;20075;-62
2023/12/17 01:42:07;;;;;;;25.05;19.75;;;;;;;8.81;100.00;145634.63;5070396;28;20016;-62
2023/12/17 01:44:33;;;;;;;26.23;19.95;;;;;;;8.83;100.00;146692.69;5051003;28;20045;-64
2023/12/17 01:46:59;;;;;;;22.90;17.92;;;;;;;8.84;100.00;148451.22;5049708;28;20017;-63
2023/12/17 01:49:24;;;;;;;24.58;21.02;;;;;;;8.85;100.00;150210.56;5048153;28;20578;-63
2023/12/17 01:51:50;;;;;;;23.40;19.88;;;;;;;8.84;100.00;151614.09;5050357;28;20029;-62
2023/12/17 01:54:16;;;;;;;29.73;20.08;;;;;;;8.82;100.00;153015.59;5048458;28;20127;-62
2023/12/17 01:56:42;;;;;;;24.40;19.42;;;;;;;8.84;100.00;152668.94;5050229;28;20116;-62
2023/12/17 01:59:07;;;;;;;22.90;19.45;;;;;;;8.79;100.00;153007.97;5048594;28;20036;-62
2023/12/17 02:01:33;;;;;;;25.95;21.08;;;;;;;8.84;100.00;152316.06;5049276;28;20021;-62
2023/12/17 02:03:58;;;;;;;25.45;21.33;;;;;;;8.85;100.00;153373.59;5048525;28;20032;-62
2023/12/17 02:06:23;;;;;;;22.65;19.80;;;;;;;8.83;100.00;155554.78;5049913;28;20044;-62
2023/12/17 02:08:49;;;;;;;23.55;18.40;;;;;;;8.83;100.00;156991.56;5049854;28;20044;-62
2023/12/17 02:11:15;;;;;;;24.48;19.58;;;;;;;8.82;100.00;158349.03;5048351;28;20071;-61
2023/12/17 02:13:40;;;;;;;25.67;18.77;;;;;;;8.81;100.00;159650.53;5050093;28;20024;-62
2023/12/17 02:16:06;;;;;;;19.40;16.33;;;;;;;8.81;100.00;160562.88;5048084;28;20033;-62
2023/12/17 02:18:31;;;;;;;23.73;18.23;;;;;;;8.81;100.00;160707.34;5049644;28;20033;-62
2023/12/17 02:20:57;;;;;;;25.30;18.77;;;;;;;8.75;100.00;162166.78;5051357;28;20033;-62
2023/12/17 02:23:23;;;;;;;24.10;16.60;;;;;;;8.73;100.00;162376.19;5053121;28;20020;-62
2023/12/17 02:25:48;;;;;;;18.35;16.17;;;;;;;8.78;100.00;162860.50;5064318;28;20143;-62
2023/12/17 02:28:14;;;;;;;19.40;16.23;;;;;;;8.76;100.00;162855.09;5053719;28;20494;-64
2023/12/17 02:30:39;;;;;;;28.38;14.98;;;;;;;8.81;100.00;162868.59;5051733;28;20041;-62
2023/12/17 02:33:05;;;;;;;16.33;14.13;;;;;;;8.80;100.00;162865.91;5053665;28;20475;-62
2023/12/17 02:35:30;;;;;;;16.52;13.80;;;;;;;8.83;100.00;162873.94;5051847;28;20044;-62
2023/12/17 02:37:55;;;;;;;16.40;13.77;;;;;;;8.85;100.00;162879.38;5053161;28;20591;-62
2023/12/17 02:40:21;;;;;;;17.13;14.00;;;;;;;8.86;100.00;162882.06;5051654;28;20056;-62
2023/12/17 02:42:46;;;;;;;12.68;11.35;;;;;;;8.86;100.00;162882.06;5053436;28;20017;-62
2023/12/17 02:45:12;;;;;;;18.17;13.38;;;;;;;8.83;100.00;162873.94;5051595;28;20052;-62
2023/12/17 02:47:38;;;;;;;15.43;13.40;;;;;;;8.91;100.00;162892.81;5052785;28;20025;-62
2023/12/17 02:50:03;;;;;;;15.10;12.30;;;;;;;8.88;100.00;162886.09;5052147;28;20045;-63
2023/12/17 02:52:29;;;;;;;15.85;11.90;;;;;;;8.88;100.00;162886.09;5058292;28;20027;-63
2023/12/17 02:54:54;;;;;;;14.65;12.35;;;;;;;8.91;100.00;162894.22;5069963;28;20045;-63
2023/12/17 02:57:24;;;;;;;18.13;12.75;;;;;;;8.87;100.00;162883.38;5073008;28;20033;-63
2023/12/17 02:59:51;;;;;;;14.40;13.00;;;;;;;8.88;100.00;162887.47;5071116;28;20044;-63
2023/12/17 03:02:17;;;;;;;18.23;13.80;;;;;;;8.92;100.00;162895.53;5072799;28;20066;-63
2023/12/17 03:04:42;;;;;;;19.23;13.18;;;;;;;8.92;100.00;162895.53;5071617;28;20059;-62
2023/12/17 03:07:07;;;;;;;12.77;11.48;;;;;;;8.94;100.00;162902.28;5072589;28;20025;-62
2023/12/17 03:09:33;;;;;;;19.00;12.85;;;;;;;8.91;100.00;162894.22;5071002;28;20057;-63
2023/12/17 03:11:58;;;;;;;12.90;11.63;;;;;;;8.95;100.00;162903.66;5060080;28;20055;-63
2023/12/17 03:14:24;;;;;;;12.15;10.95;;;;;;;8.89;100.00;162890.19;5050769;28;20668;-63
2023/12/17 03:16:49;;;;;;;13.77;11.10;;;;;;;8.89;100.00;162888.81;5053101;28;20082;-62
2023/12/17 03:19:15;;;;;;;12.75;10.75;;;;;;;8.89;100.00;162890.19;5051532;28;20468;-63
2023/12/17 03:21:40;;;;;;;12.93;11.60;;;;;;;8.89;100.00;162888.81;5052293;28;20032;-63
2023/12/17 03:24:06;;;;;;;14.07;10.10;;;;;;;8.85;100.00;162879.38;5051032;28;20033;-63
2023/12/17 03:26:32;;;;;;;12.73;11.07;;;;;;;8.86;100.00;162882.06;5052507;28;20375;-63
2023/12/17 03:28:57;;;;;;;13.07;11.68;;;;;;;8.85;100.00;162879.38;5051480;28;20045;-63
2023/12/17 03:31:23;;;;;;;12.05;10.65;;;;;;;8.83;100.00;162873.94;5051221;28;20051;-63
2023/12/17 03:33:48;;;;;;;13.60;9.80;;;;;;;8.82;100.00;162871.31;5052612;28;20357;-63
2023/12/17 03:36:15;;;;;;;15.50;11.93;;;;;;;8.80;100.00;162865.91;5049554;28;20057;-63
2023/12/17 03:38:42;;;;;;;13.88;9.55;;;;;;;8.81;100.00;162868.59;5051521;28;20036;-63
2023/12/17 03:41:22;;;;;;;15.98;10.93;;;;;;;8.82;100.00;162869.94;5050988;28;20037;-63
2023/12/17 03:43:53;;;;;;;14.00;9.70;;;;;;;8.82;100.00;162871.31;5052261;28;20025;-63
2023/12/17 03:46:22;;;;;;;9.13;7.55;;;;;;;8.79;100.00;162863.19;5050309;28;20072;-63
2023/12/17 03:48:48;;;;;;;9.98;8.52;;;;;;;8.84;100.00;162876.66;5060163;28;20036;-65
2023/12/17 03:51:14;;;;;;;10.77;9.75;;;;;;;8.80;100.00;162865.91;5053641;28;20043;-62
2023/12/17 03:53:39;;;;;;;13.45;10.90;;;;;;;8.78;100.00;162860.50;5051551;28;20024;-63
2023/12/17 03:56:12;;;;;;;9.10;8.20;;;;;;;8.81;100.00;162868.59;5050736;28;20129;-62
2023/12/17 03:58:38;;;;;;;11.52;8.57;;;;;;;8.80;100.00;162864.53;5071437;28;20036;-62
2023/12/17 04:01:05;;;;;;;10.45;8.27;;;;;;;8.72;100.00;162844.31;5070194;28;20453;-62
2023/12/17 04:03:30;;;;;;;9.65;7.25;;;;;;;8.75;100.00;162851.06;5071654;28;20035;-61
2023/12/17 04:05:58;;;;;;;8.93;7.40;;;;;;;8.77;100.00;162857.78;5057031;28;20044;-62
2023/12/17 04:08:23;;;;;;;9.43;8.63;;;;;;;8.76;100.00;162855.09;5051210;28;20044;-62
2023/12/17 04:10:49;;;;;;;12.32;6.85;;;;;;;8.80;100.00;162865.91;5050462;28;20036;-62
2023/12/17 04:13:14;;;;;;;8.07;7.28;;;;;;;8.81;100.00;162868.59;5051919;28;20484;-62
2023/12/17 04:15:39;;;;;;;13.32;6.85;;;;;;;8.82;100.00;162871.31;5049822;28;20072;-60
2023/12/17 04:18:05;;;;;;;11.48;9.82;;;;;;;8.84;100.00;162876.66;5054804;28;20020;-63
2023/12/17 04:20:30;;;;;;;9.50;8.50;;;;;;;8.72;100.00;162844.31;5049919;28;20045;-62
2023/12/17 04:22:55;;;;;;;13.50;9.27;;;;;;;8.83;100.00;162873.94;5051173;28;20021;-62
2023/12/17 04:25:22;;;;;;;12.43;8.90;;;;;;;8.86;100.00;162880.75;5049894;28;20045;-61
2023/12/17 04:27:47;;;;;;;16.42;9.27;;;;;;;8.85;100.00;162879.38;5051453;28;20550;-66
2023/12/17 04:30:12;;;;;;;13.45;9.73;;;;;;;8.84;100.00;162876.66;5049672;28;20112;-61
2023/12/17 04:32:38;;;;;;;13.38;8.45;;;;;;;8.85;100.00;162879.38;5051077;28;20047;-61
2023/12/17 04:35:04;;;;;;;13.85;10.07;;;;;;;8.86;100.00;162882.06;5050026;28;20067;-61
2023/12/17 04:37:29;;;;;;;18.52;9.55;;;;;;;8.89;100.00;162888.81;5050705;28;20055;-61
2023/12/17 04:39:55;;;;;;;14.40;11.70;;;;;;;8.80;100.00;162865.91;5049920;28;20056;-61
2023/12/17 04:42:20;;;;;;;11.27;9.50;;;;;;;8.85;100.00;162879.38;5050786;28;20119;-62
2023/12/17 04:44:45;;;;;;;12.98;11.32;;;;;;;8.83;100.00;162872.63;5054155;28;20071;-62
2023/12/17 04:47:11;;;;;;;13.73;10.32;;;;;;;8.79;100.00;162863.19;5071117;28;20028;-62
2023/12/17 04:49:37;;;;;;;11.05;9.45;;;;;;;8.77;100.00;162857.78;5068973;28;20086;-61
2023/12/17 04:52:03;;;;;;;20.35;10.32;;;;;;;8.82;100.00;162871.31;5070490;28;20024;-61
2023/12/17 04:54:28;;;;;;;13.40;10.60;;;;;;;8.83;100.00;162873.94;5069346;28;20564;-62
2023/12/17 04:56:55;;;;;;;14.50;10.23;;;;;;;8.88;100.00;162887.47;5071151;28;20025;-62
2023/12/17 04:59:21;;;;;;;17.63;10.48;;;;;;;8.87;100.00;162884.78;5068729;28;20510;-62
2023/12/17 05:01:46;;;;;;;13.45;10.70;;;;;;;8.84;100.00;162876.66;5059151;28;20067;-63
2023/12/17 05:04:12;;;;;;;13.38;9.68;;;;;;;8.81;100.00;162868.59;5049378;28;20041;-65
2023/12/17 05:06:37;;;;;;;16.17;11.23;;;;;;;8.77;100.00;162856.47;5049927;28;20032;-63
2023/12/17 05:09:02;;;;;;;17.70;11.07;;;;;;;8.80;100.00;162865.91;5049421;28;20028;-63
2023/12/17 05:11:28;;;;;;;12.00;10.80;;;;;;;8.68;100.00;162834.88;5055415;28;20710;-63
2023/12/17 05:13:53;;;;;;;14.50;10.18;;;;;;;8.80;100.00;162865.91;5068844;28;20074;-62
2023/12/17 05:16:18;;;;;;;17.17;12.50;;;;;;;8.66;100.00;162828.16;5050434;28;20009;-63
2023/12/17 05:18:44;;;;;;;12.98;10.75;;;;;;;8.72;100.00;162844.31;5050712;28;20597;-63
2023/12/17 05:21:09;;;;;;;15.05;9.50;;;;;;;8.71;100.00;162842.94;5048737;28;20060;-63
2023/12/17 05:23:34;;;;;;;14.05;12.07;;;;;;;8.70;100.00;162838.91;5050241;28;20017;-63
2023/12/17 05:26:00;;;;;;;16.27;12.55;;;;;;;8.67;100.00;162830.84;5048993;28;20040;-63
2023/12/17 05:28:27;;;;;;;19.02;12.02;;;;;;;8.65;100.00;162825.44;5049664;28;20033;-62
2023/12/17 05:30:53;;;;;;;14.98;10.25;;;;;;;8.65;100.00;162825.44;5066252;28;20086;-63
2023/12/17 05:33:18;;;;;;;13.70;11.38;;;;;;;8.74;100.00;162849.72;5070289;28;20024;-62
2023/12/17 05:35:44;;;;;;;12.45;9.18;;;;;;;8.78;100.00;162860.50;5067144;28;20043;-62
2023/12/17 05:38:09;;;;;;;11.70;10.45;;;;;;;8.81;100.00;162867.22;5070155;28;20044;-62
2023/12/17 05:40:34;;;;;;;14.82;10.85;;;;;;;8.81;100.00;162868.59;5054218;28;20064;-69
2023/12/17 05:43:02;;;;;;;17.73;11.48;;;;;;;8.79;100.00;162863.19;5049993;28;20603;-63
2023/12/17 05:45:27;;;;;;;16.95;13.02;;;;;;;8.75;100.00;162852.38;5060529;28;20385;-62
2023/12/17 05:47:52;;;;;;;17.70;13.45;;;;;;;8.76;100.00;162853.75;5070501;28;20024;-62
2023/12/17 05:50:18;;;;;;;18.38;13.80;;;;;;;8.70;100.00;162838.91;5068094;28;20044;-62
2023/12/17 05:52:43;;;;;;;11.57;9.77;;;;;;;8.67;100.00;162832.19;5062602;28;20028;-62
2023/12/17 05:55:09;;;;;;;13.20;8.88;;;;;;;8.67;100.00;162832.19;5050367;28;20048;-63
2023/12/17 05:57:34;;;;;;;15.98;12.25;;;;;;;8.70;100.00;162838.91;5053706;28;20029;-63
2023/12/17 06:00:00;;;;;;;15.63;11.05;;;;;;;8.68;100.00;162833.50;5052920;28;20048;-62
2023/12/17 06:02:26;;;;;;;14.73;12.93;;;;;;;8.66;100.00;162829.47;5068894;28;20474;-63
2023/12/17 06:04:51;;;;;;;15.70;12.05;;;;;;;8.64;100.00;162822.75;5072338;28;20041;-63
2023/12/17 06:07:17;;;;;;;15.07;11.13;;;;;;;8.65;100.00;162825.44;5070816;28;20029;-62
2023/12/17 06:09:42;;;;;;;17.92;12.48;;;;;;;8.66;100.00;162828.16;5053089;28;20570;-62
2023/12/17 06:12:08;;;;;;;16.75;12.90;;;;;;;8.64;100.00;162822.75;5053594;28;20033;-63
2023/12/17 06:14:33;;;;;;;15.52;13.00;;;;;;;8.60;100.00;162813.31;5056878;28;20041;-64
2023/12/17 06:16:59;;;;;;;17.00;14.15;;;;;;;8.67;100.00;162830.84;5073879;28;20025;-62
2023/12/17 06:19:24;;;;;;;19.75;12.93;;;;;;;8.73;100.00;162847.03;5058851;28;20041;-63
2023/12/17 06:21:49;;;;;;;18.02;13.70;;;;;;;8.73;100.00;162848.34;5054522;28;20554;-62
2023/12/17 06:24:15;;;;;;;22.70;15.05;;;;;;;8.72;100.00;162844.31;5065693;28;20045;-62
2023/12/17 06:26:40;;;;;;;20.17;15.40;;;;;;;8.71;100.00;162841.63;5053310;28;20391;-62
2023/12/17 06:29:12;;;;;;;17.55;13.57;;;;;;;8.81;100.00;162868.59;5052641;28;20020;-62
2023/12/17 06:31:38;;;;;;;19.83;15.75;;;;;;;8.73;100.00;162847.03;5053835;28;20028;-62
2023/12/17 06:34:03;;;;;;;23.83;15.93;;;;;;;8.76;100.00;162855.09;5052379;28;20021;-61
2023/12/17 06:36:29;;;;;;;20.65;16.60;;;;;;;8.78;100.00;162860.50;5059249;28;20040;-61
2023/12/17 06:38:54;;;;;;;19.52;14.73;;;;;;;8.77;100.00;162857.78;5052298;28;20032;-61
2023/12/17 06:41:19;;;;;;;19.00;14.82;;;;;;;8.72;100.00;162844.31;5051487;28;20530;-61
2023/12/17 06:43:45;;;;;;;18.73;13.82;;;;;;;8.76;100.00;162855.09;5036517;28;20079;-60
2023/12/17 06:46:17;;;;;;;20.92;14.95;;;;;;;8.79;100.00;162863.19;5067558;28;20048;-60
2023/12/17 06:48:43;;;;;;;17.55;15.38;;;;;;;8.79;100.00;162863.19;5041490;28;20029;-61
2023/12/17 06:51:09;;;;;;;21.00;15.82;;;;;;;8.82;100.00;162871.31;5049356;28;20049;-60
2023/12/17 06:53:34;;;;;;;22.38;17.15;;;;;;;8.81;100.00;162868.59;5050917;28;20128;-60
2023/12/17 06:56:00;;;;;;;19.75;16.15;;;;;;;8.66;100.00;162828.16;5051838;28;20746;-62
2023/12/17 06:58:25;;;;;;;18.40;13.82;;;;;;;8.85;100.00;162878.03;5051754;28;20032;-62
2023/12/17 07:00:50;;;;;;;15.35;13.57;;;;;;;8.84;100.00;162875.34;5050285;28;20044;-61
2023/12/17 07:03:19;;;;;;;18.58;14.73;;;;;;;8.81;100.00;162868.59;5054457;28;20052;-61
2023/12/17 07:05:45;;;;;;;21.08;18.60;;;;;;;8.79;100.00;162863.19;5069873;28;20047;-61
2023/12/17 07:08:10;;;;;;;19.42;16.20;;;;;;;8.80;100.00;162865.91;5070748;28;20033;-61
2023/12/17 07:10:36;;;;;;;19.63;17.50;;;;;;;8.86;100.00;162880.75;5054866;28;20139;-60
2023/12/17 07:13:01;;;;;;;26.17;17.65;;;;;;;8.80;100.00;162865.91;5052049;28;20029;-59
2023/12/17 07:15:27;;;;;;;23.55;17.65;;;;;;;8.79;100.00;162863.19;5049477;28;20110;-59
2023/12/17 07:17:52;;;;;;;26.60;19.58;;;;;;;8.79;100.00;162861.81;5052572;28;20025;-58
2023/12/17 07:20:18;;;;;;;24.92;20.50;;;;;;;8.79;100.00;162863.19;5050235;28;20099;-58
2023/12/17 07:22:43;;;;;;;24.17;20.10;;;;;;;8.79;100.00;162863.19;5050810;28;20029;-58
2023/12/17 07:25:09;;;;;;;22.98;18.17;;;;;;;8.79;100.00;162863.19;5050494;28;20045;-58
2023/12/17 07:27:34;;;;;;;21.33;16.80;;;;;;;8.75;100.00;162851.06;5050540;28;20059;-58
2023/12/17 07:30:00;;;;;;;28.73;22.02;;;;;;;8.78;100.00;162860.50;5049082;28;20098;-59
2023/12/17 07:32:25;;;;;;;30.30;22.27;;;;;;;8.75;100.00;162852.38;5052190;28;20511;-58
2023/12/17 07:34:50;;;;;;;26.35;19.88;;;;;;;8.74;100.00;162849.72;5049146;28;20037;-58
2023/12/17 07:37:16;;;;;;;28.98;21.38;;;;;;;8.72;100.00;162844.31;5050701;28;20041;-58
2023/12/17 07:39:42;;;;;;;33.10;20.80;;;;;;;8.71;100.00;162842.94;5050264;28;20127;-58
2023/12/17 07:42:07;;;;;;;24.48;19.23;;;;;;;8.65;100.00;162825.44;5051430;28;20056;-58
2023/12/17 07:44:32;;;;;;;25.13;20.88;;;;;;;8.66;100.00;162828.16;5049051;28;20048;-59
2023/12/17 07:46:58;;;;;;;20.80;17.92;;;;;;;8.72;100.00;162844.31;5051071;28;20049;-58
2023/12/17 07:49:24;;;;;;;23.40;19.40;;;;;;;8.76;100.00;162853.75;5050038;28;20041;-58
2023/12/17 07:51:50;;;;;;;22.00;19.13;;;;;;;8.81;100.00;162868.59;5050790;28;20032;-58
2023/12/17 07:54:16;;;;;;;20.55;17.60;;;;;;;8.77;100.00;162856.47;5049199;28;20086;-58
2023/12/17 07:56:42;;;;;;;23.08;16.80;;;;;;;8.71;100.00;162841.63;5047318;28;20510;-58
2023/12/17 07:59:07;;;;;;;19.92;16.73;;;;;;;8.76;100.00;162855.09;5049239;28;20036;-59
2023/12/17 08:01:33;;;;;;;27.60;18.73;;;;;;;8.76;100.00;162855.09;5049470;28;20028;-58
2023/12/17 08:03:59;;;;;;;27.20;20.67;;;;;;;8.77;100.00;162857.78;5056443;28;20052;-58
2023/12/17 08:06:25;;;;;;;19.95;15.93;;;;;;;8.77;100.00;162856.47;5051771;28;20126;-58
2023/12/17 08:08:52;;;;;;;25.70;18.33;;;;;;;8.77;100.00;162856.47;5048915;28;20052;-58
2023/12/17 08:11:17;;;;;;;25.75;20.33;;;;;;;8.74;100.00;162849.72;5050594;28;20024;-59
2023/12/17 08:13:44;;;;;;;21.90;16.45;;;;;;;8.72;100.00;162844.31;5051188;28;20388;-59
2023/12/17 08:16:09;;;;;;;27.90;19.50;;;;;;;8.74;100.00;162849.72;5048579;28;20041;-59
2023/12/17 08:18:35;;;;;;;27.63;21.33;;;;;;;8.72;100.00;162845.66;5049972;28;20040;-58
2023/12/17 08:21:01;;;;;;;28.60;20.23;;;;;;;8.65;100.00;162825.44;5049368;28;20114;-58
2023/12/17 08:23:26;;;;;;;25.88;18.40;;;;;;;8.61;100.00;162816.00;5050006;28;20063;-59
2023/12/17 08:25:52;;;;;;;37.58;22.73;;;;;;;8.68;100.00;162833.50;5049073;28;20049;-59
2023/12/17 08:28:19;;;;;;;29.67;20.27;;;;;;;8.69;100.00;162836.22;5050512;28;20472;-58
2023/12/17 08:30:44;;;;;;;26.92;19.52;;;;;;;8.64;100.00;162822.75;5048008;28;20048;-59
2023/12/17 08:33:10;;;;;;;32.35;22.95;;;;;;;8.61;100.00;162814.63;5054841;28;20041;-59
2023/12/17 08:35:37;;;;;;;33.65;23.52;;;;;;;8.62;100.00;162817.34;5048882;28;20049;-58
2023/12/17 08:38:05;;;;;;;29.50;22.23;;;;;;;8.62;100.00;162818.72;5049320;28;20049;-58
2023/12/17 08:40:37;;;;;;;32.50;22.77;;;;;;;8.67;100.00;162832.19;5048196;28;20512;-59
2023/12/17 08:43:03;;;;;;;31.98;23.15;;;;;;;8.66;100.00;162829.47;5050743;28;20032;-58
2023/12/17 08:45:28;;;;;;;26.17;18.23;;;;;;;8.68;100.00;162833.50;5057703;28;20127;-58
2023/12/17 08:47:54;;;;;;;34.83;23.02;;;;;;;8.65;100.00;162825.44;5052910;28;20400;-58
2023/12/17 08:50:19;;;;;;;28.42;20.73;;;;;;;8.66;100.00;162828.16;5048831;28;20044;-58
2023/12/17 08:52:44;;;;;;;27.88;21.58;;;;;;;8.67;100.00;162830.84;5049223;28;20384;-58
2023/12/17 08:55:10;;;;;;;25.67;21.02;;;;;;;8.72;100.00;162844.31;5048282;28;20053;-58
2023/12/17 08:57:36;;;;;;;24.95;19.08;;;;;;;8.70;100.00;162838.91;5049769;28;20033;-58
2023/12/17 09:00:04;;;;;;;29.00;21.80;;;;;;;8.72;100.00;162845.66;5048229;28;20121;-58
2023/12/17 09:02:30;;;;;;;29.10;21.00;;;;;;;8.71;100.00;162842.94;5049618;28;20031;-58
2023/12/17 09:04:57;;;;;;;38.03;21.52;;;;;;;8.69;100.00;162836.22;5048872;28;20143;-59
2023/12/17 09:07:22;;;;;;;27.38;20.52;;;;;;;8.67;100.00;162832.19;5050301;28;20116;-59
2023/12/17 09:09:48;;;;;;;25.02;20.92;;;;;;;8.69;100.00;162836.22;5048680;28;20504;-58
2023/12/17 09:12:13;;;;;;;25.75;18.85;;;;;;;8.68;100.00;162833.50;5050522;28;20043;-58
2023/12/17 09:14:39;;;;;;;25.38;17.70;;;;;;;8.77;100.00;162856.47;5067791;28;20387;-59
2023/12/17 09:17:04;;;;;;;23.00;19.15;;;;;;;8.77;100.00;162857.78;5069821;28;20064;-58
2023/12/17 09:19:29;;;;;;;24.98;18.67;;;;;;;8.75;100.00;162852.38;5068628;28;20033;-58
2023/12/17 09:21:55;;;;;;;21.27;17.80;;;;;;;8.68;100.00;162834.88;5070178;28;20036;-59
2023/12/17 09:24:20;;;;;;;17.58;14.82;;;;;;;8.61;100.00;162814.63;5068199;28;20089;-58
2023/12/17 09:26:45;;;;;;;17.92;16.05;;;;;;;8.54;100.00;162797.16;5070036;28;20025;-58
2023/12/17 09:29:11;;;;;;;22.80;17.92;;;;;;;8.50;100.00;162786.31;5067842;28;20036;-58
2023/12/17 09:31:36;;;;;;;19.88;15.32;;;;;;;8.51;100.00;162790.41;5069859;28;20047;-59
2023/12/17 09:34:01;;;;;;;18.90;14.63;;;;;;;8.51;100.00;162789.03;5068340;28;20024;-58
2023/12/17 09:36:27;;;;;;;20.13;14.88;;;;;;;8.42;100.00;162767.41;5069916;28;20110;-58
2023/12/17 09:38:53;;;;;;;18.67;15.23;;;;;;;8.41;100.00;162764.69;5068862;28;20379;-59
2023/12/17 09:41:19;;;;;;;23.23;16.08;;;;;;;8.35;100.00;162747.22;5060738;28;20593;-58
2023/12/17 09:43:45;;;;;;;23.98;15.80;;;;;;;8.34;100.00;162744.50;5049840;28;20025;-58
2023/12/17 09:46:11;;;;;;;17.33;14.10;;;;;;;8.39;100.00;162757.97;5048523;28;20095;-58
2023/12/17 09:48:36;;;;;;;17.55;14.25;;;;;;;8.42;100.00;162767.41;5049706;28;20476;-58
2023/12/17 09:51:02;;;;;;;19.80;14.45;;;;;;;8.41;100.00;162763.38;5048585;28;20056;-58
2023/12/17 09:53:30;;;;;;;16.20;13.77;;;;;;;8.48;100.00;162780.97;5049614;28;20388;-58
2023/12/17 09:55:55;;;;;;;18.40;14.93;;;;;;;8.49;100.00;162785.00;5047909;28;20063;-58
2023/12/17 09:58:20;;;;;;;21.50;15.80;;;;;;;8.49;100.00;162785.00;5049633;28;20029;-58
2023/12/17 10:00:46;;;;;;;22.13;17.48;;;;;;;8.50;100.00;162787.72;5048278;28;20071;-58
2023/12/17 10:03:14;;;;;;;25.25;17.15;;;;;;;8.34;100.00;162745.84;5049375;28;20072;-58
2023/12/17 10:05:40;;;;;;;28.92;20.73;;;;;;;8.23;100.00;162717.53;5048047;28;20056;-58
2023/12/17 10:08:05;;;;;;;24.65;19.30;;;;;;;8.25;100.00;162722.94;5050101;28;20021;-58
2023/12/17 10:10:31;;;;;;;25.45;20.88;;;;;;;8.23;100.00;162717.53;5065029;28;20356;-58
2023/12/17 10:12:57;;;;;;;22.92;19.00;;;;;;;8.18;100.00;162704.06;5069799;28;20039;-58
2023/12/17 10:15:22;;;;;;;25.02;17.63;;;;;;;8.14;100.00;162693.31;5067909;28;20040;-58
2023/12/17 10:17:48;;;;;;;28.70;19.60;;;;;;;8.18;100.00;162704.06;5069465;28;20028;-59
2023/12/17 10:20:18;;;;;;;26.05;19.95;;;;;;;8.16;100.00;162698.66;5068065;28;20542;-59
2023/12/17 10:23:01;;;;;;;21.95;15.38;;;;;;;8.12;100.00;162686.59;5069877;28;20031;-58
2023/12/17 10:25:27;;;;;;;22.70;18.13;;;;;;;8.10;100.00;162682.50;5064339;28;20641;-59
2023/12/17 10:27:56;;;;;;;22.35;17.85;;;;;;;8.07;100.00;162675.78;5049430;28;20040;-58
2023/12/17 10:30:27;;;;;;;21.95;18.55;;;;;;;8.11;100.00;162685.19;5046398;28;20044;-59
2023/12/17 10:32:54;;;;;;;21.73;16.85;;;;;;;8.16;100.00;162698.66;5047924;28;20029;-58
2023/12/17 10:35:23;;;;;;;17.85;16.00;;;;;;;8.16;100.00;162698.66;5046174;28;20052;-58
2023/12/17 10:37:52;;;;;;;20.60;14.35;;;;;;;8.22;100.00;162713.50;5047335;28;20120;-59
2023/12/17 10:40:20;;;;;;;17.25;14.70;;;;;;;8.25;100.00;162722.94;5061528;28;20471;-58
2023/12/17 10:42:47;;;;;;;19.65;14.38;;;;;;;8.29;100.00;162732.38;5071245;28;20108;-58
2023/12/17 10:45:15;;;;;;;24.60;17.13;;;;;;;8.28;100.00;162728.34;5070067;28;20143;-59
2023/12/17 10:47:40;;;;;;;15.23;13.15;;;;;;;8.26;100.00;162725.63;5070723;28;20365;-58
2023/12/17 10:50:07;;;;;;;16.20;13.30;;;;;;;8.17;100.00;162701.38;5070338;28;20093;-59
2023/12/17 10:52:33;;;;;;;20.20;16.88;;;;;;;8.19;100.00;162706.78;5072712;28;20495;-58
2023/12/17 10:54:59;;;;;;;16.77;13.43;;;;;;;8.18;100.00;162704.06;5071097;28;20056;-59
2023/12/17 10:57:26;;;;;;;19.77;15.27;;;;;;;8.21;100.00;162712.19;5072794;28;20027;-58
2023/12/17 10:59:54;;;;;;;15.25;13.38;;;;;;;8.17;100.00;162701.38;5071086;28;20207;-59
2023/12/17 11:02:22;;;;;;;17.88;14.52;;;;;;;8.14;100.00;162693.31;5069966;28;20086;-58